SHT5W EGAC-EGLL
Flight info
| Callsign | SHT5W |
|---|---|
| Flight time | 0h 49m |
| Altitude | 33000 |
| Route | DUFFY L10 RINGA Q39 BABGU DCT ETIGA DCT INKOB Q39 NOMSU UQ4 WAL UY53 NUGRA |
| Aircraft | A320/M-SDE3FGHIRWY/LB1 |
Departure
| Time | 2026-04-26 12:20 |
|---|---|
| Airport | George Best Belfast City Airport (EGAC) |
Arrival
| Time | 2026-04-26 13:10 |
|---|---|
| Airport | London Heathrow Airport (EGLL) |
| Time | Latitude | Longitude | Altitude | Speed | Heading |
|---|---|---|---|---|---|
| 2026-04-26 12:20 | 54.57034 | -5.78409 | 12855 ft | 335 kts | 219° |
| 2026-04-26 12:20 | 54.55022 | -5.80423 | 13550 ft | 339 kts | 200° |
| 2026-04-26 12:21 | 54.52673 | -5.81033 | 14180 ft | 347 kts | 179° |
| 2026-04-26 12:21 | 54.50299 | -5.80108 | 14744 ft | 357 kts | 158° |
| 2026-04-26 12:21 | 54.48236 | -5.77679 | 15319 ft | 366 kts | 136° |
| 2026-04-26 12:21 | 54.46677 | -5.74175 | 15897 ft | 371 kts | 127° |
| 2026-04-26 12:22 | 54.45201 | -5.70506 | 16477 ft | 375 kts | 127° |
| 2026-04-26 12:22 | 54.43719 | -5.66791 | 17056 ft | 378 kts | 127° |
| 2026-04-26 12:22 | 54.42227 | -5.63056 | 17633 ft | 382 kts | 127° |
| 2026-04-26 12:22 | 54.40715 | -5.59279 | 18218 ft | 385 kts | 127° |
| 2026-04-26 12:23 | 54.39186 | -5.55477 | 18778 ft | 389 kts | 127° |
| 2026-04-26 12:23 | 54.37637 | -5.51644 | 19313 ft | 392 kts | 127° |
| 2026-04-26 12:23 | 54.36075 | -5.47789 | 19864 ft | 394 kts | 127° |
| 2026-04-26 12:23 | 54.34504 | -5.43911 | 20420 ft | 397 kts | 127° |
| 2026-04-26 12:24 | 54.32921 | -5.40006 | 20959 ft | 400 kts | 127° |
| 2026-04-26 12:24 | 54.31320 | -5.36070 | 21480 ft | 403 kts | 127° |
| 2026-04-26 12:24 | 54.29704 | -5.32115 | 22000 ft | 406 kts | 127° |
| 2026-04-26 12:25 | 54.26401 | -5.24259 | 22994 ft | 412 kts | 130° |
| 2026-04-26 12:25 | 54.24610 | -5.20417 | 23488 ft | 414 kts | 131° |
| 2026-04-26 12:25 | 54.22735 | -5.16577 | 23952 ft | 417 kts | 133° |
| 2026-04-26 12:25 | 54.20878 | -5.12841 | 24350 ft | 420 kts | 133° |
| 2026-04-26 12:26 | 54.18978 | -5.09018 | 24747 ft | 422 kts | 133° |
| 2026-04-26 12:26 | 54.17085 | -5.05181 | 25221 ft | 422 kts | 133° |
| 2026-04-26 12:26 | 54.15194 | -5.01305 | 25553 ft | 426 kts | 133° |
| 2026-04-26 12:26 | 54.13299 | -4.97390 | 25913 ft | 429 kts | 133° |
| 2026-04-26 12:27 | 54.11397 | -4.93450 | 26297 ft | 431 kts | 133° |
| 2026-04-26 12:27 | 54.09490 | -4.89501 | 26671 ft | 433 kts | 133° |
| 2026-04-26 12:27 | 54.07568 | -4.85534 | 27043 ft | 435 kts | 133° |
| 2026-04-26 12:27 | 54.05629 | -4.81544 | 27405 ft | 437 kts | 133° |
| 2026-04-26 12:28 | 54.03691 | -4.77540 | 27764 ft | 440 kts | 132° |
| 2026-04-26 12:28 | 54.01791 | -4.73433 | 28113 ft | 443 kts | 131° |
| 2026-04-26 12:28 | 53.99925 | -4.69246 | 28425 ft | 446 kts | 130° |
| 2026-04-26 12:28 | 53.98091 | -4.65050 | 28752 ft | 449 kts | 130° |
| 2026-04-26 12:29 | 53.96229 | -4.60781 | 29091 ft | 451 kts | 130° |
| 2026-04-26 12:29 | 53.94349 | -4.56495 | 29435 ft | 453 kts | 130° |
| 2026-04-26 12:29 | 53.90521 | -4.47917 | 30038 ft | 458 kts | 131° |
| 2026-04-26 12:30 | 53.88576 | -4.43609 | 30326 ft | 461 kts | 131° |
| 2026-04-26 12:30 | 53.86627 | -4.39284 | 30693 ft | 461 kts | 130° |
| 2026-04-26 12:30 | 53.84736 | -4.34888 | 31078 ft | 462 kts | 129° |
| 2026-04-26 12:31 | 53.81097 | -4.25914 | 31843 ft | 462 kts | 128° |
| 2026-04-26 12:31 | 53.79304 | -4.21406 | 32227 ft | 462 kts | 128° |
| 2026-04-26 12:31 | 53.77505 | -4.16915 | 32612 ft | 461 kts | 128° |
| 2026-04-26 12:31 | 53.75685 | -4.12434 | 32954 ft | 462 kts | 129° |
| 2026-04-26 12:32 | 53.73850 | -4.07970 | 33242 ft | 464 kts | 129° |
| 2026-04-26 12:32 | 53.71999 | -4.03505 | 33286 ft | 464 kts | 129° |
| 2026-04-26 12:33 | 53.66441 | -3.90149 | 33280 ft | 462 kts | 129° |
| 2026-04-26 12:33 | 53.62751 | -3.81284 | 33277 ft | 462 kts | 129° |
| 2026-04-26 12:34 | 53.59080 | -3.72505 | 33284 ft | 461 kts | 129° |
| 2026-04-26 12:34 | 53.55338 | -3.63603 | 33285 ft | 472 kts | 129° |
| 2026-04-26 12:35 | 53.51510 | -3.54511 | 33285 ft | 479 kts | 129° |
| 2026-04-26 12:35 | 53.47666 | -3.45339 | 33289 ft | 481 kts | 126° |
| 2026-04-26 12:36 | 53.44739 | -3.35167 | 33284 ft | 486 kts | 116° |
| 2026-04-26 12:36 | 53.42087 | -3.24740 | 33294 ft | 486 kts | 116° |
| 2026-04-26 12:37 | 53.39325 | -3.14387 | 33297 ft | 484 kts | 122° |
| 2026-04-26 12:37 | 53.35533 | -3.05190 | 33296 ft | 480 kts | 130° |
| 2026-04-26 12:38 | 53.31538 | -2.96231 | 33286 ft | 481 kts | 130° |
| 2026-04-26 12:38 | 53.27558 | -2.87319 | 33288 ft | 481 kts | 130° |
| 2026-04-26 12:39 | 53.23538 | -2.78359 | 33307 ft | 482 kts | 130° |
| 2026-04-26 12:39 | 53.19511 | -2.69406 | 33300 ft | 482 kts | 130° |
| 2026-04-26 12:40 | 53.15484 | -2.60487 | 33320 ft | 481 kts | 130° |
| 2026-04-26 12:40 | 53.11492 | -2.51514 | 33311 ft | 482 kts | 128° |
| 2026-04-26 12:41 | 53.07723 | -2.42263 | 33302 ft | 483 kts | 126° |
| 2026-04-26 12:41 | 53.03892 | -2.33106 | 33297 ft | 480 kts | 134° |
| 2026-04-26 12:42 | 52.98871 | -2.26020 | 33311 ft | 470 kts | 152° |
| 2026-04-26 12:42 | 52.94253 | -2.21246 | 33313 ft | 470 kts | 152° |
| 2026-04-26 12:43 | 52.87806 | -2.14516 | 33321 ft | 469 kts | 151° |
| 2026-04-26 12:43 | 52.83289 | -2.09770 | 32685 ft | 458 kts | 151° |
| 2026-04-26 12:43 | 52.80588 | -2.06944 | 32131 ft | 454 kts | 152° |
| 2026-04-26 12:44 | 52.77925 | -2.04167 | 31589 ft | 450 kts | 152° |
| 2026-04-26 12:44 | 52.75323 | -2.01466 | 31055 ft | 447 kts | 152° |
| 2026-04-26 12:44 | 52.72655 | -1.98702 | 30515 ft | 444 kts | 152° |
| 2026-04-26 12:44 | 52.70040 | -1.95995 | 29922 ft | 441 kts | 152° |
| 2026-04-26 12:45 | 52.67462 | -1.93331 | 29394 ft | 435 kts | 152° |
| 2026-04-26 12:45 | 52.64940 | -1.90724 | 28869 ft | 419 kts | 152° |
| 2026-04-26 12:45 | 52.62542 | -1.88248 | 28377 ft | 405 kts | 152° |
| 2026-04-26 12:45 | 52.60176 | -1.85815 | 27909 ft | 401 kts | 152° |
| 2026-04-26 12:46 | 52.57774 | -1.83354 | 27431 ft | 400 kts | 151° |
| 2026-04-26 12:46 | 52.55448 | -1.80969 | 26967 ft | 400 kts | 151° |
| 2026-04-26 12:46 | 52.53087 | -1.78549 | 26513 ft | 399 kts | 151° |
| 2026-04-26 12:46 | 52.50735 | -1.76143 | 26055 ft | 398 kts | 151° |
| 2026-04-26 12:47 | 52.48389 | -1.73747 | 25619 ft | 397 kts | 151° |
| 2026-04-26 12:47 | 52.46041 | -1.71357 | 25183 ft | 396 kts | 151° |
| 2026-04-26 12:47 | 52.43700 | -1.68975 | 24751 ft | 395 kts | 151° |
| 2026-04-26 12:47 | 52.41361 | -1.66595 | 24317 ft | 395 kts | 150° |
| 2026-04-26 12:48 | 52.39025 | -1.64222 | 23863 ft | 394 kts | 150° |
| 2026-04-26 12:48 | 52.36697 | -1.61857 | 23384 ft | 393 kts | 150° |
| 2026-04-26 12:48 | 52.34379 | -1.59498 | 22948 ft | 390 kts | 150° |
| 2026-04-26 12:48 | 52.32080 | -1.57162 | 22457 ft | 387 kts | 150° |
| 2026-04-26 12:49 | 52.29826 | -1.54876 | 22026 ft | 385 kts | 150° |
| 2026-04-26 12:49 | 52.27554 | -1.52577 | 21558 ft | 383 kts | 150° |
| 2026-04-26 12:49 | 52.25295 | -1.50296 | 21094 ft | 380 kts | 150° |
| 2026-04-26 12:49 | 52.23051 | -1.48036 | 20615 ft | 378 kts | 150° |
| 2026-04-26 12:50 | 52.20899 | -1.45572 | 20149 ft | 378 kts | 141° |
| 2026-04-26 12:50 | 52.18919 | -1.42788 | 19794 ft | 373 kts | 141° |
| 2026-04-26 12:50 | 52.16966 | -1.40049 | 19418 ft | 368 kts | 141° |
| 2026-04-26 12:50 | 52.15030 | -1.37343 | 19047 ft | 364 kts | 141° |
| 2026-04-26 12:51 | 52.13122 | -1.34683 | 18679 ft | 360 kts | 141° |
| 2026-04-26 12:51 | 52.11228 | -1.32046 | 18276 ft | 356 kts | 141° |
| 2026-04-26 12:51 | 52.09353 | -1.29437 | 17919 ft | 353 kts | 141° |
| 2026-04-26 12:51 | 52.07487 | -1.26846 | 17562 ft | 351 kts | 141° |
| 2026-04-26 12:52 | 52.05632 | -1.24277 | 17203 ft | 350 kts | 141° |
| 2026-04-26 12:52 | 52.03783 | -1.21724 | 16847 ft | 348 kts | 142° |
| 2026-04-26 12:52 | 52.01949 | -1.19194 | 16477 ft | 345 kts | 141° |
| 2026-04-26 12:52 | 52.00122 | -1.16674 | 16127 ft | 344 kts | 141° |
| 2026-04-26 12:53 | 51.98301 | -1.14160 | 15782 ft | 342 kts | 141° |
| 2026-04-26 12:53 | 51.96517 | -1.11696 | 15437 ft | 341 kts | 142° |
| 2026-04-26 12:53 | 51.94722 | -1.09217 | 15288 ft | 339 kts | 142° |
| 2026-04-26 12:53 | 51.92920 | -1.06734 | 15306 ft | 341 kts | 142° |
| 2026-04-26 12:54 | 51.91148 | -1.04293 | 15306 ft | 326 kts | 142° |
| 2026-04-26 12:54 | 51.89456 | -1.01961 | 15305 ft | 312 kts | 142° |
| 2026-04-26 12:54 | 51.87836 | -0.99730 | 15303 ft | 299 kts | 142° |
| 2026-04-26 12:54 | 51.86292 | -0.97600 | 15305 ft | 286 kts | 140° |
| 2026-04-26 12:55 | 51.85014 | -0.95187 | 15305 ft | 283 kts | 123° |
| 2026-04-26 12:55 | 51.84108 | -0.92366 | 15137 ft | 282 kts | 118° |
| 2026-04-26 12:55 | 51.83242 | -0.89521 | 14864 ft | 281 kts | 118° |
| 2026-04-26 12:55 | 51.82379 | -0.86693 | 14594 ft | 280 kts | 118° |
| 2026-04-26 12:56 | 51.81515 | -0.83866 | 14308 ft | 279 kts | 118° |
| 2026-04-26 12:56 | 51.80654 | -0.81056 | 14006 ft | 278 kts | 118° |
| 2026-04-26 12:56 | 51.79798 | -0.78264 | 13703 ft | 277 kts | 118° |
| 2026-04-26 12:56 | 51.78945 | -0.75487 | 13404 ft | 275 kts | 118° |
| 2026-04-26 12:57 | 51.78097 | -0.72725 | 13122 ft | 274 kts | 118° |
| 2026-04-26 12:57 | 51.77250 | -0.69976 | 12836 ft | 272 kts | 118° |
| 2026-04-26 12:57 | 51.76409 | -0.67252 | 12532 ft | 270 kts | 118° |
| 2026-04-26 12:58 | 51.74734 | -0.61843 | 11981 ft | 268 kts | 118° |
| 2026-04-26 12:58 | 51.73905 | -0.59162 | 11709 ft | 267 kts | 118° |
| 2026-04-26 12:58 | 51.73079 | -0.56488 | 11458 ft | 265 kts | 117° |
| 2026-04-26 12:58 | 51.72259 | -0.53836 | 11192 ft | 264 kts | 119° |
| 2026-04-26 12:59 | 51.71173 | -0.51520 | 10918 ft | 258 kts | 145° |
| 2026-04-26 12:59 | 51.69568 | -0.50362 | 10652 ft | 252 kts | 175° |
| 2026-04-26 12:59 | 51.67862 | -0.50651 | 10319 ft | 247 kts | 205° |
| 2026-04-26 12:59 | 51.66488 | -0.52248 | 9996 ft | 245 kts | 227° |
| 2026-04-26 13:00 | 51.65371 | -0.54302 | 9635 ft | 247 kts | 230° |
| 2026-04-26 13:00 | 51.64284 | -0.56433 | 9366 ft | 245 kts | 231° |
| 2026-04-26 13:00 | 51.63208 | -0.58570 | 9067 ft | 244 kts | 233° |
| 2026-04-26 13:00 | 51.62422 | -0.60973 | 8813 ft | 242 kts | 249° |
| 2026-04-26 13:01 | 51.61853 | -0.63523 | 8433 ft | 241 kts | 251° |
| 2026-04-26 13:01 | 51.61314 | -0.66084 | 7920 ft | 241 kts | 251° |
| 2026-04-26 13:01 | 51.60778 | -0.68644 | 7448 ft | 241 kts | 251° |
| 2026-04-26 13:01 | 51.60244 | -0.71208 | 6992 ft | 240 kts | 251° |
| 2026-04-26 13:02 | 51.59825 | -0.73798 | 6531 ft | 239 kts | 262° |
| 2026-04-26 13:02 | 51.59673 | -0.76463 | 6019 ft | 239 kts | 265° |
| 2026-04-26 13:02 | 51.59576 | -0.79142 | 5546 ft | 239 kts | 265° |
| 2026-04-26 13:02 | 51.59231 | -0.81713 | 5081 ft | 234 kts | 239° |
| 2026-04-26 13:03 | 51.58160 | -0.83554 | 4636 ft | 228 kts | 208° |
| 2026-04-26 13:03 | 51.56668 | -0.84280 | 4204 ft | 223 kts | 185° |
| 2026-04-26 13:03 | 51.55129 | -0.84361 | 3961 ft | 221 kts | 177° |
| 2026-04-26 13:03 | 51.53595 | -0.84266 | 3732 ft | 218 kts | 176° |
| 2026-04-26 13:04 | 51.52090 | -0.84091 | 3527 ft | 217 kts | 172° |
| 2026-04-26 13:04 | 51.50622 | -0.83723 | 3320 ft | 210 kts | 167° |
| 2026-04-26 13:04 | 51.49214 | -0.83194 | 3113 ft | 204 kts | 157° |
| 2026-04-26 13:04 | 51.48112 | -0.81920 | 3048 ft | 192 kts | 127° |
| 2026-04-26 13:05 | 51.47607 | -0.80025 | 2985 ft | 184 kts | 98° |
| 2026-04-26 13:05 | 51.47586 | -0.77984 | 2987 ft | 178 kts | 90° |
| 2026-04-26 13:05 | 51.47602 | -0.76079 | 2983 ft | 166 kts | 89° |
| 2026-04-26 13:05 | 51.47614 | -0.74251 | 2990 ft | 162 kts | 91° |
| 2026-04-26 13:06 | 51.47626 | -0.72438 | 2952 ft | 163 kts | 91° |
| 2026-04-26 13:06 | 51.47637 | -0.70622 | 2808 ft | 162 kts | 91° |
| 2026-04-26 13:06 | 51.47648 | -0.68826 | 2621 ft | 158 kts | 91° |
| 2026-04-26 13:06 | 51.47658 | -0.67060 | 2401 ft | 158 kts | 91° |
| 2026-04-26 13:07 | 51.47668 | -0.65294 | 2194 ft | 159 kts | 92° |
| 2026-04-26 13:07 | 51.47677 | -0.63545 | 1984 ft | 158 kts | 90° |
| 2026-04-26 13:07 | 51.47686 | -0.61771 | 1760 ft | 160 kts | 91° |
| 2026-04-26 13:07 | 51.47696 | -0.59988 | 1544 ft | 153 kts | 91° |
| 2026-04-26 13:08 | 51.47705 | -0.58350 | 1340 ft | 141 kts | 91° |
| 2026-04-26 13:08 | 51.47712 | -0.56793 | 1152 ft | 138 kts | 90° |
| 2026-04-26 13:08 | 51.47719 | -0.55263 | 970 ft | 137 kts | 93° |
| 2026-04-26 13:08 | 51.47726 | -0.53728 | 789 ft | 138 kts | 90° |
| 2026-04-26 13:09 | 51.47734 | -0.52201 | 582 ft | 136 kts | 90° |
| 2026-04-26 13:09 | 51.47741 | -0.50714 | 398 ft | 135 kts | 90° |
| 2026-04-26 13:09 | 51.47753 | -0.49216 | 214 ft | 131 kts | 89° |
| 2026-04-26 13:09 | 51.47754 | -0.47771 | 87 ft | 121 kts | 90° |
| 2026-04-26 13:10 | 51.47757 | -0.46849 | 92 ft | 41 kts | 90° |
| 2026-04-26 13:10 | 51.47758 | -0.46479 | 92 ft | 28 kts | 89° |
| 2026-04-26 13:10 | 51.47731 | -0.46181 | 88 ft | 26 kts | 133° |
| 2026-04-26 13:10 | 51.47604 | -0.46098 | 89 ft | 16 kts | 226° |
| 2026-04-26 13:11 | 51.47593 | -0.46284 | 87 ft | 18 kts | 269° |
| 2026-04-26 13:11 | 51.47591 | -0.46497 | 87 ft | 19 kts | 270° |
| 2026-04-26 13:11 | 51.47590 | -0.46728 | 87 ft | 22 kts | 269° |
| 2026-04-26 13:11 | 51.47581 | -0.46987 | 91 ft | 25 kts | 269° |
| 2026-04-26 13:12 | 51.47580 | -0.47275 | 88 ft | 27 kts | 270° |
| 2026-04-26 13:12 | 51.47579 | -0.47593 | 89 ft | 30 kts | 269° |
| 2026-04-26 13:12 | 51.47577 | -0.47936 | 87 ft | 32 kts | 269° |
| 2026-04-26 13:12 | 51.47578 | -0.48279 | 89 ft | 30 kts | 270° |
| 2026-04-26 13:13 | 51.47544 | -0.48471 | 87 ft | 12 kts | 198° |
| 2026-04-26 13:13 | 51.47487 | -0.48566 | 87 ft | 14 kts | 260° |
| 2026-04-26 13:13 | 51.47486 | -0.48721 | 90 ft | 14 kts | 270° |
| 2026-04-26 13:13 | 51.47480 | -0.48830 | 90 ft | 5 kts | 234° |
| 2026-04-26 13:14 | 51.47449 | -0.48832 | 87 ft | 5 kts | 175° |
| 2026-04-26 13:14 | 51.47413 | -0.48831 | 87 ft | 4 kts | 181° |
| 2026-04-26 13:14 | 51.47402 | -0.48831 | 87 ft | 0 kts | 181° |